Bookmark and Share
Track history (hours):
 

Yamato

Last reported at 2014-Apr-16 04:33 UTC. Time now 2014-Apr-16 05:25 UTC.
Position N 35°27' E 139°42'.

Length 40 m; draft 3.6 m.

Type: Tug. MMSI: 431101141.

NotesDate/timePositionNaut miles runAvg speedWind from/ knotsBaromVisibWave heightAir tempDewpointWater temp
2014-Apr-16 04:33N 35°27' E 139°42'4 3.3
2014-Apr-16 03:27N 35°25' E 139°39'0 0.1
2014-Apr-16 02:31N 35°24' E 139°39'2 2.0
2014-Apr-16 01:33N 35°23' E 139°40'0 0.0
2014-Apr-16 00:31N 35°23' E 139°40'0 0.5
2014-Apr-15 23:34N 35°23' E 139°41'2 2.1
2014-Apr-15 22:33N 35°25' E 139°41'3 3.0
2014-Apr-15 21:33N 35°27' E 139°44'4 4.4
2014-Apr-15 20:33N 35°27' E 139°39'3 0.2
2014-Apr-15 07:34N 35°27' E 139°42'1 0.8
2014-Apr-15 06:34N 35°27' E 139°41'2 1.9
2014-Apr-15 05:34N 35°27' E 139°39'5 2.7
2014-Apr-15 03:34N 35°30' E 139°44'1 0.8
2014-Apr-15 02:34N 35°30' E 139°45'4 3.8
2014-Apr-15 01:34N 35°28' E 139°42'2 2.2
2014-Apr-15 00:34N 35°25' E 139°42'4 3.5
2014-Apr-14 23:34N 35°24' E 139°38'3 3.0
2014-Apr-14 22:34N 35°24' E 139°42'4 4.1
2014-Apr-14 21:34N 35°27' E 139°39'0 0.0
2014-Apr-14 10:34N 35°27' E 139°39'1 0.7
2014-Apr-14 09:34N 35°27' E 139°39'0 0.0
2014-Apr-14 08:33N 35°27' E 139°39'4 4.5
2014-Apr-14 07:33N 35°30' E 139°44'4 3.5
2014-Apr-14 06:33N 35°26' E 139°44'1 1.4
2014-Apr-14 05:33N 35°27' E 139°42'2 0.3
2014-Apr-13 22:33N 35°27' E 139°40'0 0.0
2014-Apr-13 21:33N 35°27' E 139°40'0 0.0
2014-Apr-13 20:33N 35°27' E 139°40'0 0.0
2014-Apr-13 19:33N 35°27' E 139°40'0 0.0
2014-Apr-13 18:33N 35°27' E 139°40'0 0.0
2014-Apr-13 17:33N 35°27' E 139°40'0 0.0
2014-Apr-13 16:33N 35°27' E 139°40'0 0.0
2014-Apr-13 15:33N 35°27' E 139°40'0 0.0
2014-Apr-13 14:33N 35°27' E 139°40'0 0.0
2014-Apr-13 13:33N 35°27' E 139°40'0 0.0
2014-Apr-13 12:34N 35°27' E 139°40'0 0.0
2014-Apr-13 11:33N 35°27' E 139°40'0 0.0
2014-Apr-13 10:33N 35°27' E 139°40'0 0.0
2014-Apr-13 09:33N 35°27' E 139°40'0 0.0
2014-Apr-13 08:34N 35°27' E 139°40'0 0.0
2014-Apr-13 07:33N 35°27' E 139°40'0 0.0
2014-Apr-13 06:34N 35°27' E 139°40'0 0.0
2014-Apr-13 05:33N 35°27' E 139°40'0 0.0
2014-Apr-13 04:33N 35°27' E 139°40'0 0.0
2014-Apr-13 03:33N 35°27' E 139°40'0 0.0
2014-Apr-13 02:34N 35°27' E 139°40'0 0.0
2014-Apr-13 01:33N 35°27' E 139°40'0 0.0
2014-Apr-13 00:34N 35°27' E 139°40'0 0.0
2014-Apr-12 23:33N 35°27' E 139°40'0 0.3
2014-Apr-12 22:33N 35°27' E 139°39'4 3.6
2014-Apr-12 21:33N 35°25' E 139°43'3 2.6
2014-Apr-12 20:33N 35°28' E 139°42'1 1.5
2014-Apr-12 19:33N 35°28' E 139°40'1 1.5
2014-Apr-12 18:33N 35°28' E 139°42'0 0.1
2014-Apr-12 17:34N 35°28' E 139°42'0 0.4
2014-Apr-12 16:33N 35°27' E 139°42'0 0.0
2014-Apr-12 15:33N 35°27' E 139°42'1 0.9
2014-Apr-12 14:33N 35°27' E 139°41'0 0.3
2014-Apr-12 13:33N 35°27' E 139°41'1 1.4
2014-Apr-12 12:34N 35°27' E 139°40'0 0.0
2014-Apr-12 11:33N 35°27' E 139°40'0 0.0
2014-Apr-12 10:33N 35°27' E 139°40'0 0.0
2014-Apr-12 09:33N 35°27' E 139°40'0 0.0
2014-Apr-12 08:33N 35°27' E 139°40'1 0.6
2014-Apr-12 07:33N 35°27' E 139°40'1 1.5
2014-Apr-12 06:34N 35°26' E 139°42'2 2.3
2014-Apr-12 05:33N 35°24' E 139°41'2 2.0
2014-Apr-12 04:33N 35°25' E 139°39'3 3.3
2014-Apr-12 03:34N 35°25' E 139°43'1 1.2
2014-Apr-12 02:33N 35°26' E 139°42'0 0.0
2014-Apr-12 01:33N 35°26' E 139°42'3 2.6
2014-Apr-12 00:33N 35°28' E 139°43'1 0.7
2014-Apr-11 23:33N 35°27' E 139°42'2 2.2
2014-Apr-11 22:33N 35°26' E 139°44'4 3.6
2014-Apr-11 21:33N 35°27' E 139°40'0 0.0
2014-Apr-11 07:15N 35°27' E 139°40'0 0.6
2014-Apr-11 06:34N 35°27' E 139°40'1 1.3
2014-Apr-11 05:33N 35°26' E 139°41'1 1.2
2014-Apr-11 04:34N 35°28' E 139°41'0 0.0
2014-Apr-11 03:33N 35°28' E 139°41'0 0.0
2014-Apr-11 02:34N 35°28' E 139°41'0 0.1
2014-Apr-11 01:34N 35°27' E 139°40'2 1.6
2014-Apr-11 00:33N 35°26' E 139°42'1 0.6
2014-Apr-10 23:33N 35°27' E 139°42'0 0.0
2014-Apr-10 22:34N 35°27' E 139°42'1 1.3
2014-Apr-10 21:33N 35°28' E 139°42'3 3.3
2014-Apr-10 20:34N 35°27' E 139°39'1 0.1
2014-Apr-10 08:27N 35°28' E 139°40'1 1.0
2014-Apr-10 07:33N 35°27' E 139°41'0 0.4
2014-Apr-10 06:34N 35°28' E 139°41'0 0.0
2014-Apr-10 05:32N 35°28' E 139°41'0 0.0
2014-Apr-10 04:33N 35°28' E 139°41'0 0.0
2014-Apr-10 03:33N 35°28' E 139°41'0 0.0
2014-Apr-10 02:33N 35°28' E 139°41'0 0.0
2014-Apr-10 01:34N 35°28' E 139°41'0 0.0
2014-Apr-10 00:34N 35°28' E 139°41'0 0.0
2014-Apr-09 23:34N 35°28' E 139°41'1 1.2
2014-Apr-09 22:34N 35°27' E 139°42'2 2.5
2014-Apr-09 21:33N 35°27' E 139°39'0 0.0
2014-Apr-09 08:30N 35°27' E 139°39'3 2.8
2014-Apr-09 07:34N 35°26' E 139°42'1 1.2
2014-Apr-09 06:34N 35°25' E 139°42'3 2.7
2014-Apr-09 05:34N 35°25' E 139°38'4 3.6
2014-Apr-09 04:34N 35°27' E 139°42'0 0.0
2014-Apr-09 03:34N 35°27' E 139°42'1 1.3
2014-Apr-09 02:34N 35°26' E 139°41'2 2.1
2014-Apr-09 01:34N 35°27' E 139°39'0 0.0
2014-Apr-09 00:34N 35°27' E 139°39'0 0.0
2014-Apr-08 23:34N 35°27' E 139°39'0 0.0
2014-Apr-08 07:10N 35°27' E 139°39'0 0.0
2014-Apr-08 06:33N 35°27' E 139°39'0 0.0
2014-Apr-08 05:33N 35°27' E 139°39'2 1.7
2014-Apr-08 04:33N 35°27' E 139°41'4 3.9
2014-Apr-08 03:34N 35°27' E 139°45'5 4.8
2014-Apr-08 02:34N 35°27' E 139°40'0 0.1
2014-Apr-08 01:33N 35°27' E 139°39'0 0.1
2014-Apr-08 00:33N 35°27' E 139°39'1 1.2
2014-Apr-07 23:33N 35°27' E 139°41'3 2.5
2014-Apr-07 22:33N 35°26' E 139°44'4 4.5
2014-Apr-07 21:33N 35°27' E 139°39'0 0.0
2014-Apr-07 20:33N 35°27' E 139°39'1 0.1
2014-Apr-07 09:32N 35°27' E 139°39'0 0.0
2014-Apr-07 08:34N 35°27' E 139°39'1 0.8
2014-Apr-07 07:34N 35°27' E 139°40'4 4.2
2014-Apr-07 06:34N 35°23' E 139°40'0 0.0
2014-Apr-07 05:33N 35°23' E 139°40'0 0.0
2014-Apr-07 04:33N 35°23' E 139°40'0 0.0
2014-Apr-07 03:33N 35°23' E 139°40'0 0.0
2014-Apr-07 02:34N 35°23' E 139°40'3 3.2
2014-Apr-07 01:33N 35°26' E 139°42'1 0.5
2014-Apr-07 00:34N 35°26' E 139°42'1 0.7
2014-Apr-06 23:34N 35°26' E 139°42'1 0.5
2014-Apr-06 22:34N 35°26' E 139°42'3 2.7
2014-Apr-06 21:33N 35°27' E 139°39'  

Dump ship's entire track history

sailing weather and tide predictions

Yamato — JD2252 — position and weather